createdAt,value
2023-01-27T00:01:15.657Z,100839.75
2023-01-27T00:06:17.061Z,100833.00
2023-01-27T00:11:37.310Z,100843.81
2023-01-27T00:16:38.703Z,100838.78
2023-01-27T00:21:58.890Z,100838.06
2023-01-27T00:27:00.330Z,100842.78
2023-01-27T00:32:20.682Z,100838.59
2023-01-27T00:37:22.048Z,100836.91
2023-01-27T00:42:23.510Z,100841.91
2023-01-27T00:47:24.916Z,100837.78
2023-01-27T00:52:26.482Z,100831.09
2023-01-27T00:57:27.952Z,100832.72
2023-01-27T01:02:29.415Z,100829.31
2023-01-27T01:07:30.870Z,100824.34
2023-01-27T01:12:32.317Z,100824.34
2023-01-27T01:17:33.745Z,100829.38
2023-01-27T01:22:35.165Z,100830.94
2023-01-27T01:27:36.608Z,100827.47
2023-01-27T01:32:38.033Z,100828.28
2023-01-27T01:37:39.470Z,100828.41
2023-01-27T01:42:52.520Z,100815.94
2023-01-27T01:47:53.924Z,100807.66
2023-01-27T01:52:56.001Z,100800.16
2023-01-27T01:57:57.490Z,100798.41
2023-01-27T02:02:59.022Z,100799.28
2023-01-27T02:08:16.612Z,100802.63
2023-01-27T02:13:18.005Z,100800.16
2023-01-27T02:18:19.882Z,100805.19
2023-01-27T02:23:52.243Z,100807.66
2023-01-27T02:29:06.648Z,100807.69
2023-01-27T02:34:12.371Z,100807.59
2023-01-27T02:39:16.770Z,100805.91
2023-01-27T02:44:18.304Z,100797.56
2023-01-27T02:49:19.723Z,100798.38
2023-01-27T02:54:21.114Z,100804.22
2023-01-27T02:59:22.558Z,100801.66
2023-01-27T03:04:24.113Z,100797.50
2023-01-27T03:09:25.617Z,100794.19
2023-01-27T03:14:45.809Z,100797.41
2023-01-27T03:19:53.269Z,100801.56
2023-01-27T03:24:54.705Z,100797.41
2023-01-27T03:29:56.203Z,100790.88
2023-01-27T03:34:57.846Z,100790.16
2023-01-27T03:40:18.106Z,100800.25
2023-01-27T03:45:37.995Z,100801.94
2023-01-27T03:50:43.100Z,100806.94
2023-01-27T03:55:44.546Z,100815.25
2023-01-27T04:00:47.867Z,100823.63
2023-01-27T04:06:07.894Z,100830.41
2023-01-27T04:11:28.634Z,100826.22
2023-01-27T04:16:31.700Z,100835.34
2023-01-27T04:21:33.922Z,100838.63
2023-01-27T04:26:35.539Z,100831.91
2023-01-27T04:31:36.980Z,100833.50
2023-01-27T04:36:40.119Z,100839.28
2023-01-27T04:41:41.619Z,100839.22
2023-01-27T04:46:43.061Z,100830.94
2023-01-27T04:51:46.233Z,100827.44
2023-01-27T04:57:01.159Z,100829.13
2023-01-27T05:02:04.676Z,100835.88
2023-01-27T05:07:06.284Z,100838.44
2023-01-27T05:12:08.014Z,100841.78
2023-01-27T05:17:09.474Z,100835.94
2023-01-27T05:22:11.408Z,100841.78
2023-01-27T05:27:12.836Z,100844.25
2023-01-27T05:32:14.249Z,100844.28
2023-01-27T05:37:15.980Z,100852.63
2023-01-27T05:42:18.527Z,100848.38
2023-01-27T05:47:19.964Z,100855.88
2023-01-27T05:52:21.414Z,100862.53
2023-01-27T05:57:22.887Z,100859.22
2023-01-27T06:02:24.545Z,100862.47
2023-01-27T06:07:25.983Z,100861.78
2023-01-27T06:12:27.460Z,100855.13
2023-01-27T06:17:30.336Z,100857.72
2023-01-27T06:22:31.805Z,100865.19
2023-01-27T06:27:33.271Z,100872.75
2023-01-27T06:32:37.888Z,100871.13
2023-01-27T06:37:39.492Z,100881.25
2023-01-27T06:42:43.490Z,100889.81
2023-01-27T06:47:45.017Z,100899.03
2023-01-27T06:52:46.574Z,100891.50
2023-01-27T06:57:48.434Z,100893.09
2023-01-27T07:02:50.726Z,100889.75
2023-01-27T07:07:52.326Z,100894.81
2023-01-27T07:12:53.805Z,100902.25
2023-01-27T07:17:58.701Z,100912.22
2023-01-27T07:23:02.152Z,100914.81
2023-01-27T07:28:03.866Z,100921.56
2023-01-27T07:33:06.298Z,100936.66
2023-01-27T07:38:08.049Z,100936.06
2023-01-27T07:43:10.382Z,100952.97
2023-01-27T07:48:12.884Z,100950.50
2023-01-27T07:53:14.787Z,100954.59
2023-01-27T07:58:16.734Z,100952.13
2023-01-27T08:03:23.988Z,100963.78
2023-01-27T08:08:25.492Z,100966.25
2023-01-27T08:13:27.180Z,100962.94
2023-01-27T08:18:29.773Z,100967.94
2023-01-27T08:23:32.649Z,100972.84
2023-01-27T08:28:36.860Z,100974.56
2023-01-27T08:33:38.865Z,100972.00
2023-01-27T08:38:41.460Z,100969.50
2023-01-27T08:43:43.401Z,100967.03
2023-01-27T08:48:44.968Z,100970.56
2023-01-27T08:53:46.411Z,100973.19
2023-01-27T08:58:48.552Z,100973.31
2023-01-27T09:03:50.126Z,100978.53
2023-01-27T09:09:11.754Z,100966.03
2023-01-27T09:14:13.933Z,100974.63
2023-01-27T09:19:15.890Z,100973.94
2023-01-27T09:24:18.121Z,100977.59
2023-01-27T09:29:19.767Z,100989.59
2023-01-27T09:34:21.310Z,100998.78
2023-01-27T09:39:23.600Z,101001.22
2023-01-27T09:44:45.963Z,101003.66
2023-01-27T09:49:50.358Z,100989.53
2023-01-27T09:55:12.295Z,100997.31
2023-01-27T10:00:33.282Z,100989.13
2023-01-27T10:05:37.928Z,101002.59
2023-01-27T10:10:56.135Z,101000.88
2023-01-27T10:16:13.640Z,100996.47
2023-01-27T10:21:33.888Z,100999.69
2023-01-27T10:26:42.687Z,100993.81
2023-01-27T10:31:54.384Z,100993.81
2023-01-27T10:37:12.913Z,101007.09
2023-01-27T10:42:31.378Z,100991.84
2023-01-27T10:47:42.889Z,100987.97
2023-01-27T10:52:52.684Z,100992.25
2023-01-27T10:58:02.156Z,100976.47
2023-01-27T11:03:21.562Z,100980.56
2023-01-27T11:08:27.365Z,100976.41
2023-01-27T11:13:31.107Z,100975.69
2023-01-27T11:18:36.190Z,100975.78
2023-01-27T11:23:43.379Z,100964.91
2023-01-27T11:29:00.188Z,100963.38
2023-01-27T11:34:19.219Z,100964.25
2023-01-27T11:39:20.845Z,100955.00
2023-01-27T11:44:29.571Z,100957.41
2023-01-27T11:49:35.566Z,100960.69
2023-01-27T11:54:43.031Z,100953.88
2023-01-27T11:59:45.693Z,100951.31
2023-01-27T12:05:00.120Z,100947.25
2023-01-27T12:10:01.867Z,100946.47
2023-01-27T12:15:05.122Z,100945.72
2023-01-27T12:20:15.138Z,100936.38
2023-01-27T12:25:28.057Z,100946.44
2023-01-27T12:30:34.844Z,100954.81
2023-01-27T12:35:37.339Z,100942.97
2023-01-27T12:40:43.083Z,100949.63
2023-01-27T12:45:44.888Z,100944.59
2023-01-27T12:50:52.648Z,100944.75
2023-01-27T12:56:13.804Z,100939.75
2023-01-27T13:01:23.729Z,100934.63
2023-01-27T13:06:59.338Z,100956.44
2023-01-27T13:12:04.801Z,100946.44
2023-01-27T13:17:27.913Z,100953.25
2023-01-27T13:22:37.823Z,100954.94
2023-01-27T13:27:40.825Z,100959.13
2023-01-27T13:32:47.568Z,100968.25
2023-01-27T13:37:57.298Z,100962.44
2023-01-27T13:43:34.302Z,100970.78
2023-01-27T13:48:43.210Z,100964.16
2023-01-27T13:53:47.576Z,100959.94
2023-01-27T13:59:17.240Z,100961.56
2023-01-27T14:04:21.978Z,100958.25
2023-01-27T14:09:49.613Z,100955.84
2023-01-27T14:15:03.918Z,100961.91
2023-01-27T14:20:17.995Z,100957.88
2023-01-27T14:25:31.075Z,100967.91
2023-01-27T14:30:41.426Z,100963.59
2023-01-27T14:35:50.560Z,100973.63
2023-01-27T14:41:05.227Z,100976.03
2023-01-27T14:46:41.333Z,100965.81
2023-01-27T14:51:49.731Z,100975.75
2023-01-27T14:57:08.250Z,100980.78
2023-01-27T15:02:15.963Z,100985.88
2023-01-27T15:07:34.113Z,100988.31
2023-01-27T15:12:48.340Z,100985.84
2023-01-27T15:18:01.888Z,100986.75
2023-01-27T15:23:06.929Z,100989.25
2023-01-27T15:28:17.774Z,100989.25
2023-01-27T15:33:52.037Z,100995.06
2023-01-27T15:39:09.244Z,101005.13
2023-01-27T15:44:18.221Z,101005.88
2023-01-27T15:49:27.181Z,101009.31
2023-01-27T15:54:33.529Z,101005.03
2023-01-27T15:59:59.515Z,101012.34
2023-01-27T16:05:26.222Z,101027.31
2023-01-27T16:10:33.579Z,101026.38
2023-01-27T16:15:35.701Z,101035.56
2023-01-27T16:20:44.063Z,101034.75
2023-01-27T16:25:50.763Z,101029.69
2023-01-27T16:31:05.754Z,101037.34
2023-01-27T16:36:29.166Z,101033.22
2023-01-27T16:41:39.063Z,101032.44
2023-01-27T16:46:45.496Z,101037.53
2023-01-27T16:51:58.155Z,101046.78
2023-01-27T16:57:01.706Z,101048.38
2023-01-27T17:02:16.062Z,101054.22
2023-01-27T17:07:17.703Z,101060.09
2023-01-27T17:12:50.351Z,101059.28
2023-01-27T17:17:52.212Z,101063.50
2023-01-27T17:22:55.383Z,101071.00
2023-01-27T17:28:00.269Z,101069.25
2023-01-27T17:33:04.847Z,101071.72
2023-01-27T17:38:16.460Z,101073.38
2023-01-27T17:43:37.665Z,101074.19
2023-01-27T17:48:51.414Z,101077.53
2023-01-27T17:53:54.226Z,101078.38
2023-01-27T17:59:07.079Z,101084.34
2023-01-27T18:04:11.850Z,101088.59
2023-01-27T18:09:18.243Z,101089.38
2023-01-27T18:14:20.887Z,101086.06
2023-01-27T18:19:24.891Z,101090.22
2023-01-27T18:24:28.271Z,101080.16
2023-01-27T18:29:36.284Z,101092.81
2023-01-27T18:34:51.600Z,101097.00
2023-01-27T18:39:53.760Z,101096.19
2023-01-27T18:44:56.080Z,101097.06
2023-01-27T18:50:00.620Z,101092.81
2023-01-27T18:55:13.517Z,101099.47
2023-01-27T19:00:18.021Z,101097.91
2023-01-27T19:05:25.667Z,101102.97
2023-01-27T19:10:30.637Z,101102.19
2023-01-27T19:15:44.266Z,101101.44
2023-01-27T19:20:46.081Z,101107.28
2023-01-27T19:25:50.971Z,101115.72
2023-01-27T19:30:52.517Z,101126.50
2023-01-27T19:36:00.650Z,101118.88
2023-01-27T19:41:03.243Z,101120.50
2023-01-27T19:46:14.734Z,101127.19
2023-01-27T19:51:17.456Z,101127.19
2023-01-27T19:56:21.484Z,101133.06
2023-01-27T20:01:24.951Z,101138.09
2023-01-27T20:06:28.570Z,101134.75
2023-01-27T20:11:31.992Z,101136.38
2023-01-27T20:16:34.031Z,101135.59
2023-01-27T20:21:35.587Z,101133.03
2023-01-27T20:26:37.510Z,101128.81
2023-01-27T20:31:39.598Z,101129.66
2023-01-27T20:36:41.326Z,101136.44
2023-01-27T20:41:42.813Z,101139.78
2023-01-27T20:46:44.275Z,101139.72
2023-01-27T20:51:45.745Z,101143.97
2023-01-27T20:56:47.226Z,101147.31
2023-01-27T21:01:48.756Z,101139.75
2023-01-27T21:06:50.204Z,101156.56
2023-01-27T21:11:51.719Z,101151.56
2023-01-27T21:16:53.262Z,101149.09
2023-01-27T21:21:54.905Z,101150.88
2023-01-27T21:26:57.197Z,101156.78
2023-01-27T21:31:58.921Z,101156.00
2023-01-27T21:37:00.436Z,101157.75
2023-01-27T21:42:01.842Z,101161.16
2023-01-27T21:47:04.708Z,101159.56
2023-01-27T21:52:06.138Z,101157.00
2023-01-27T21:57:07.595Z,101154.50
2023-01-27T22:02:13.616Z,101154.50
2023-01-27T22:07:16.900Z,101156.22
2023-01-27T22:12:18.515Z,101156.22
2023-01-27T22:17:20.197Z,101152.94
2023-01-27T22:22:21.652Z,101150.34
2023-01-27T22:27:24.139Z,101142.00
2023-01-27T22:32:25.591Z,101161.25
2023-01-27T22:37:27.040Z,101160.41
2023-01-27T22:42:28.491Z,101166.28
2023-01-27T22:47:29.944Z,101164.56
2023-01-27T22:52:31.417Z,101156.13
2023-01-27T22:57:33.417Z,101160.28
2023-01-27T23:02:36.962Z,101159.44
2023-01-27T23:07:38.462Z,101164.44
2023-01-27T23:12:40.073Z,101157.72
2023-01-27T23:17:41.529Z,101161.06
2023-01-27T23:22:43.009Z,101169.34
2023-01-27T23:27:44.483Z,101164.34
2023-01-27T23:32:45.967Z,101160.19
2023-01-27T23:37:47.365Z,101161.09
2023-01-27T23:42:48.797Z,101154.47
2023-01-27T23:47:50.250Z,101149.41
2023-01-27T23:52:51.745Z,101145.16
2023-01-27T23:57:53.158Z,101138.41
